Time;durP1;ratioP1;P1;durP2;ratioP2;P2;SDS_P1;SDS_P2;PMS_P1;PMS_P2;Temp;Humidity;BMP_temperature;BMP_pressure;BME280_temperature;BME280_humidity;BME280_pressure;Samples;Min_cycle;Max_cycle;Signal;HPM_P1;HPM_P2
2022/01/30 00:00:12;;;;;;;6.32;2.08;;;8.90;72.00;;;;;;20724226;28;20129;-81
2022/01/30 00:10:14;;;;;;;8.70;2.30;;;8.90;71.90;;;;;;20722173;28;20435;-82
2022/01/30 00:20:22;;;;;;;7.47;2.03;;;8.90;71.60;;;;;;20734745;28;20088;-84
2022/01/30 00:30:23;;;;;;;11.00;1.98;;;8.90;71.50;;;;;;20753404;28;20090;-82
2022/01/30 00:40:25;;;;;;;11.90;2.38;;;8.90;71.60;;;;;;20733164;28;20080;-82
2022/01/30 00:50:26;;;;;;;10.95;3.80;;;8.90;71.70;;;;;;20734072;28;20034;-81
2022/01/30 01:00:27;;;;;;;9.80;2.13;;;9.00;71.60;;;;;;20733251;28;20029;-80
2022/01/30 01:30:54;;;;;;;5.60;1.50;;;8.80;71.80;;;;;;20748919;28;20507;-81
2022/01/30 01:40:55;;;;;;;8.88;2.33;;;8.80;71.90;;;;;;20730609;28;20032;-81
2022/01/30 01:51:06;;;;;;;8.48;1.88;;;8.80;72.00;;;;;;20746056;28;20041;-82
2022/01/30 02:01:06;;;;;;;14.63;2.55;;;8.80;72.10;;;;;;20745751;28;20088;-81
2022/01/30 02:11:13;;;;;;;8.63;1.60;;;8.80;72.10;;;;;;20742968;28;20045;-82
2022/01/30 02:31:40;;;;;;;15.70;3.35;;;8.80;72.00;;;;;;20754088;28;20060;-84
2022/01/30 02:41:42;;;;;;;10.75;2.03;;;8.80;71.80;;;;;;20750957;28;20050;-84
2022/01/30 02:52:09;;;;;;;12.02;3.72;;;8.80;71.70;;;;;;20751406;28;20038;-82
2022/01/30 03:02:10;;;;;;;17.52;2.40;;;8.80;71.60;;;;;;20744357;28;20119;-82
2022/01/30 03:12:12;;;;;;;9.80;2.08;;;8.80;71.60;;;;;;20743132;28;20042;-84
2022/01/30 03:22:13;;;;;;;9.68;2.35;;;8.80;71.50;;;;;;20741561;28;20116;-82
2022/01/30 03:32:14;;;;;;;7.60;2.00;;;8.80;71.20;;;;;;20741110;28;20048;-81
2022/01/30 03:42:15;;;;;;;19.30;2.40;;;8.80;71.10;;;;;;20721618;28;20061;-81
2022/01/30 03:52:16;;;;;;;9.20;2.50;;;8.80;71.10;;;;;;20703844;28;20049;-84
2022/01/30 04:02:18;;;;;;;12.77;2.85;;;8.70;71.20;;;;;;20737924;28;20378;-82
2022/01/30 04:12:20;;;;;;;12.00;2.10;;;8.80;71.30;;;;;;20735380;28;20065;-80
2022/01/30 04:22:42;;;;;;;15.95;2.97;;;8.80;71.30;;;;;;20752314;28;20037;-83
2022/01/30 04:33:21;;;;;;;9.90;2.40;;;8.70;71.10;;;;;;20588470;28;20104;-82
2022/01/30 05:15:05;;;;;;;9.15;3.00;;;8.70;70.70;;;;;;20761165;28;20400;-81
2022/01/30 05:25:18;;;;;;;8.68;2.25;;;8.80;70.80;;;;;;20733263;28;20148;-85
2022/01/30 05:35:27;;;;;;;16.50;2.95;;;8.80;70.70;;;;;;20761391;28;20037;-82
2022/01/30 05:45:53;;;;;;;10.63;2.67;;;8.90;70.50;;;;;;20760520;28;20096;-81
2022/01/30 05:56:11;;;;;;;9.18;3.08;;;9.10;70.10;;;;;;20735883;28;20605;-82
2022/01/30 06:06:13;;;;;;;10.25;2.92;;;9.30;69.50;;;;;;20744766;28;20069;-82
2022/01/30 06:16:14;;;;;;;16.08;3.08;;;9.40;68.90;;;;;;20746253;28;20101;-81
2022/01/30 06:26:14;;;;;;;15.30;3.33;;;9.50;68.50;;;;;;20726880;28;20116;-82
2022/01/30 06:36:33;;;;;;;12.05;3.28;;;9.40;68.30;;;;;;20741472;28;20038;-79
2022/01/30 06:46:52;;;;;;;17.25;3.30;;;9.30;68.20;;;;;;20741781;28;20365;-83
2022/01/30 06:57:01;;;;;;;11.15;3.15;;;9.20;68.20;;;;;;20740100;28;20042;-82
2022/01/30 07:07:22;;;;;;;14.30;2.78;;;9.10;68.20;;;;;;20754927;28;20049;-81
2022/01/30 07:17:22;;;;;;;9.88;2.03;;;9.00;68.10;;;;;;20739807;28;20068;-84
2022/01/30 07:27:23;;;;;;;11.68;2.92;;;8.90;68.00;;;;;;20765169;28;20041;-84
2022/01/30 07:37:24;;;;;;;12.77;3.55;;;8.90;68.00;;;;;;20748706;28;20053;-86
2022/01/30 07:47:25;;;;;;;14.80;2.65;;;8.90;67.80;;;;;;20748364;28;20293;-84
2022/01/30 07:57:25;;;;;;;19.43;3.23;;;8.80;67.50;;;;;;20747175;28;20049;-87
2022/01/30 08:07:27;;;;;;;15.70;3.15;;;8.80;67.40;;;;;;20746126;28;20336;-84
2022/01/30 08:17:28;;;;;;;9.60;3.13;;;8.80;67.30;;;;;;20744660;28;20034;-84
2022/01/30 08:27:28;;;;;;;14.43;2.90;;;8.70;67.10;;;;;;20730691;28;20076;-82
2022/01/30 08:37:29;;;;;;;15.70;3.05;;;8.80;67.10;;;;;;20744219;28;20046;-84
2022/01/30 08:47:33;;;;;;;20.38;4.10;;;8.70;66.80;;;;;;20745587;28;20053;-84
2022/01/30 08:57:34;;;;;;;14.15;4.68;;;8.70;66.80;;;;;;20762011;28;20464;-85
2022/01/30 09:07:35;;;;;;;16.05;2.80;;;8.70;66.60;;;;;;20743074;28;20049;-85
2022/01/30 09:17:39;;;;;;;13.02;2.78;;;8.70;66.40;;;;;;20745230;28;20477;-86
2022/01/30 09:27:40;;;;;;;11.32;3.15;;;8.70;66.20;;;;;;20770378;28;20049;-84
2022/01/30 09:37:41;;;;;;;12.88;3.00;;;8.70;66.20;;;;;;20756392;28;20478;-85
2022/01/30 09:47:41;;;;;;;15.13;3.63;;;8.70;66.00;;;;;;20774048;28;20487;-84
2022/01/30 09:57:43;;;;;;;15.85;3.42;;;8.60;65.80;;;;;;20740700;28;20058;-83
2022/01/30 10:07:51;;;;;;;11.07;2.95;;;8.70;65.80;;;;;;20771744;28;20030;-84
2022/01/30 10:17:53;;;;;;;13.23;2.45;;;8.60;65.60;;;;;;20755249;28;20057;-85
2022/01/30 10:28:27;;;;;;;18.38;2.53;;;8.70;65.60;;;;;;20737986;28;20045;-85
2022/01/30 10:38:32;;;;;;;13.82;3.67;;;8.70;65.60;;;;;;20717675;28;20096;-85
2022/01/30 10:48:32;;;;;;;10.02;2.95;;;8.60;65.50;;;;;;20729150;28;20042;-85
2022/01/30 10:58:33;;;;;;;14.25;3.45;;;8.60;65.40;;;;;;20739270;28;20491;-85
2022/01/30 11:08:34;;;;;;;12.23;3.40;;;8.70;65.40;;;;;;20738411;28;20026;-84
2022/01/30 11:18:35;;;;;;;19.63;3.50;;;8.70;65.30;;;;;;20754061;28;20054;-83
2022/01/30 11:28:38;;;;;;;12.45;2.50;;;8.80;65.10;;;;;;20737087;28;20121;-84
2022/01/30 11:38:39;;;;;;;20.70;3.85;;;8.90;64.70;;;;;;20735917;28;20538;-85
2022/01/30 11:48:41;;;;;;;17.05;3.33;;;9.10;64.30;;;;;;21135938;23;20868;-84
2022/01/30 11:58:45;;;;;;;11.70;3.53;;;9.40;63.80;;;;;;20655150;28;20389;-85
2022/01/30 12:08:50;;;;;;;15.63;3.50;;;9.40;63.20;;;;;;20654175;28;20041;-84
2022/01/30 12:18:51;;;;;;;19.50;4.60;;;9.50;62.70;;;;;;20654143;28;20050;-84
2022/01/30 12:28:53;;;;;;;18.65;3.60;;;9.60;62.70;;;;;;20670029;28;20093;-82
2022/01/30 12:38:56;;;;;;;20.17;2.80;;;9.50;63.30;;;;;;20621540;28;20050;-85
2022/01/30 12:49:02;;;;;;;20.92;3.88;;;9.30;62.70;;;;;;20636301;28;20042;-84
2022/01/30 12:59:07;;;;;;;22.15;4.30;;;9.30;62.80;;;;;;20641628;28;20108;-83
2022/01/30 13:09:08;;;;;;;19.67;3.70;;;9.10;62.90;;;;;;20635796;28;20085;-83
2022/01/30 13:19:10;;;;;;;14.73;3.35;;;9.00;63.10;;;;;;20650669;28;20046;-84
2022/01/30 13:29:16;;;;;;;17.23;3.88;;;9.00;63.20;;;;;;20665145;28;20129;-84
2022/01/30 13:39:16;;;;;;;14.77;3.20;;;8.90;63.10;;;;;;20681360;28;20050;-84
2022/01/30 13:49:17;;;;;;;13.90;2.97;;;9.00;63.20;;;;;;20648388;28;20484;-84
2022/01/30 13:59:27;;;;;;;13.98;2.60;;;8.80;63.10;;;;;;20647608;28;20376;-84
2022/01/30 14:09:48;;;;;;;12.52;4.18;;;8.80;63.10;;;;;;20662210;28;20168;-83
2022/01/30 14:20:04;;;;;;;15.43;2.92;;;8.90;63.10;;;;;;20649137;28;20039;-84
2022/01/30 14:30:08;;;;;;;21.15;4.40;;;8.80;62.90;;;;;;20631195;28;20057;-85
2022/01/30 14:40:10;;;;;;;10.60;3.17;;;8.80;62.90;;;;;;20661156;28;20033;-84
2022/01/30 14:50:10;;;;;;;11.57;3.00;;;8.80;62.90;;;;;;20659930;28;20042;-84
2022/01/30 15:00:14;;;;;;;13.45;3.03;;;8.80;62.80;;;;;;20657295;28;20081;-83
2022/01/30 15:10:15;;;;;;;10.10;2.70;;;8.70;62.80;;;;;;20658879;28;20042;-83
2022/01/30 15:20:16;;;;;;;12.60;3.22;;;8.70;62.70;;;;;;20640588;28;20484;-84
2022/01/30 15:30:17;;;;;;;11.13;3.20;;;8.70;62.70;;;;;;20640461;28;20065;-85
2022/01/30 15:40:17;;;;;;;12.75;2.75;;;8.70;62.60;;;;;;20639819;28;20034;-83
2022/01/30 15:50:18;;;;;;;16.70;3.08;;;8.70;62.50;;;;;;20639089;28;20054;-83
2022/01/30 16:00:19;;;;;;;8.82;2.90;;;8.80;62.30;;;;;;20638350;28;20030;-83
2022/01/30 16:10:22;;;;;;;8.73;3.13;;;9.00;62.80;;;;;;20638270;28;20536;-83
2022/01/30 16:20:23;;;;;;;13.48;3.08;;;9.20;61.70;;;;;;20638550;28;20030;-84
2022/01/30 16:30:23;;;;;;;11.45;3.03;;;9.40;61.20;;;;;;20637077;28;20101;-83
2022/01/30 16:40:24;;;;;;;11.20;3.15;;;9.40;60.90;;;;;;20667573;28;20042;-86
2022/01/30 16:50:26;;;;;;;15.23;2.40;;;9.30;60.80;;;;;;20652152;28;20053;-85
2022/01/30 17:00:27;;;;;;;11.23;3.13;;;9.20;60.80;;;;;;20650675;28;20112;-83
2022/01/30 17:10:28;;;;;;;9.60;2.72;;;9.10;60.90;;;;;;20681629;28;20050;-82
2022/01/30 17:20:28;;;;;;;8.95;2.67;;;9.00;61.10;;;;;;20649024;28;20035;-85
2022/01/30 17:30:29;;;;;;;12.20;2.70;;;9.00;61.30;;;;;;20665158;28;20085;-83
2022/01/30 17:40:31;;;;;;;9.65;2.22;;;8.90;61.50;;;;;;20664005;28;20385;-83
2022/01/30 17:50:33;;;;;;;14.55;2.28;;;8.90;61.60;;;;;;20647812;28;20137;-83
2022/01/30 18:00:34;;;;;;;7.25;2.28;;;8.90;61.90;;;;;;20662306;28;20046;-83
2022/01/30 18:10:34;;;;;;;14.82;2.95;;;8.80;62.00;;;;;;20662275;28;20089;-84
2022/01/30 18:20:35;;;;;;;10.23;2.70;;;8.80;62.20;;;;;;20661696;28;20065;-83
2022/01/30 18:30:35;;;;;;;14.25;2.85;;;8.80;62.30;;;;;;20643380;28;20436;-83
2022/01/30 18:40:45;;;;;;;9.38;2.53;;;8.80;62.40;;;;;;20658515;28;20040;-85
2022/01/30 18:50:46;;;;;;;10.00;3.67;;;8.80;62.50;;;;;;20659241;28;20038;-85
2022/01/30 19:00:47;;;;;;;7.80;1.83;;;8.80;62.60;;;;;;20647364;28;20049;-85
2022/01/30 19:10:50;;;;;;;11.05;2.03;;;8.80;62.70;;;;;;20669703;28;20094;-82
2022/01/30 19:20:50;;;;;;;7.90;1.98;;;8.80;62.80;;;;;;20668133;28;20038;-84
2022/01/30 19:30:51;;;;;;;7.88;2.47;;;8.70;62.70;;;;;;20667447;28;20050;-83
2022/01/30 19:40:52;;;;;;;7.85;2.10;;;8.70;62.70;;;;;;20667681;28;20342;-82
2022/01/30 19:50:54;;;;;;;8.40;2.20;;;8.70;62.70;;;;;;20650974;28;20046;-84
2022/01/30 20:00:55;;;;;;;9.70;2.28;;;8.70;62.60;;;;;;20634154;28;20046;-84
2022/01/30 20:10:56;;;;;;;13.13;2.97;;;8.70;62.50;;;;;;20648901;28;20035;-84
2022/01/30 20:20:56;;;;;;;13.07;2.72;;;8.70;62.50;;;;;;20664302;28;20026;-83
2022/01/30 20:31:02;;;;;;;11.10;2.25;;;8.70;62.50;;;;;;20647986;28;20069;-85
2022/01/30 20:41:03;;;;;;;18.98;2.90;;;8.70;62.40;;;;;;20648643;28;20049;-84
2022/01/30 20:51:04;;;;;;;4.65;1.70;;;8.70;62.30;;;;;;20664028;28;20121;-84
2022/01/30 21:01:07;;;;;;;7.97;3.10;;;8.70;62.40;;;;;;20663060;28;20042;-82
2022/01/30 21:11:09;;;;;;;11.38;2.80;;;8.70;62.40;;;;;;20647524;28;20732;-84
2022/01/30 21:21:10;;;;;;;8.68;3.03;;;8.70;62.50;;;;;;20647585;28;20053;-82
2022/01/30 21:31:11;;;;;;;8.15;2.08;;;8.70;62.60;;;;;;20652375;28;20050;-82
2022/01/30 21:41:11;;;;;;;11.73;1.85;;;8.70;62.70;;;;;;20634378;28;20037;-84
2022/01/30 21:51:12;;;;;;;13.50;2.50;;;8.70;62.80;;;;;;20670582;28;20050;-84
2022/01/30 22:01:13;;;;;;;10.55;2.42;;;8.70;62.70;;;;;;20656264;28;20137;-84
2022/01/30 22:11:14;;;;;;;8.00;2.58;;;8.80;62.80;;;;;;20667286;28;20116;-84
2022/01/30 22:21:18;;;;;;;12.95;2.35;;;8.70;62.90;;;;;;20687004;28;20058;-86
2022/01/30 22:31:20;;;;;;;11.93;3.60;;;8.80;63.00;;;;;;20668490;28;20480;-85
2022/01/30 22:41:21;;;;;;;8.85;2.55;;;8.70;63.00;;;;;;20653142;28;20041;-85
2022/01/30 22:51:22;;;;;;;10.40;2.80;;;8.70;63.10;;;;;;20652145;28;20069;-84
2022/01/30 23:01:22;;;;;;;6.30;1.73;;;8.70;63.10;;;;;;20651762;28;20285;-85
2022/01/30 23:11:23;;;;;;;11.43;2.78;;;8.70;63.30;;;;;;20665718;28;20126;-83
2022/01/30 23:21:26;;;;;;;6.43;1.80;;;8.70;63.30;;;;;;20665914;28;20121;-85
2022/01/30 23:31:27;;;;;;;8.77;1.92;;;8.70;63.40;;;;;;20649077;28;20382;-83
2022/01/30 23:41:33;;;;;;;12.10;2.38;;;8.70;63.40;;;;;;20664084;28;20030;-84
2022/01/30 23:51:33;;;;;;;9.43;2.05;;;8.70;63.50;;;;;;20647857;28;20125;-84
